Time;durP1;ratioP1;P1;durP2;ratioP2;P2;SDS_P1;SDS_P2;PMS_P1;PMS_P2;Temp;Humidity;BMP_temperature;BMP_pressure;BME280_temperature;BME280_humidity;BME280_pressure;Samples;Min_cycle;Max_cycle;Signal;HPM_P1;HPM_P2
2020/12/14 06:03:19;;;;;;;12.45;7.05;;;;;;;0.73;81.77;100231.66;1757929;78;953884;-54
2020/12/14 06:05:48;;;;;;;13.50;6.92;;;;;;;0.67;81.87;100233.27;1770202;81;21621;-56
2020/12/14 06:08:39;;;;;;;22.55;10.65;;;;;;;0.66;82.04;100236.75;1762377;80;21206;-56
2020/12/14 06:11:08;;;;;;;18.67;9.40;;;;;;;0.64;81.91;100229.59;1746395;80;21601;-58
2020/12/14 06:13:58;;;;;;;15.40;8.33;;;;;;;0.56;81.95;100229.60;1708139;82;21674;-57
2020/12/14 06:16:30;;;;;;;10.08;5.90;;;;;;;0.50;82.19;100239.33;1755116;80;21657;-55
2020/12/14 06:18:58;;;;;;;9.03;5.62;;;;;;;0.60;82.34;100235.80;1740264;80;21163;-56
2020/12/14 06:21:41;;;;;;;13.22;7.45;;;;;;;0.62;82.15;100242.99;1736745;80;21639;-55
2020/12/14 06:24:19;;;;;;;9.48;6.25;;;;;;;0.67;82.15;100235.84;1722255;80;21686;-54
2020/12/14 06:26:47;;;;;;;7.47;4.95;;;;;;;0.72;82.00;100242.86;1720558;81;21218;-54
2020/12/14 06:29:48;;;;;;;7.62;4.10;;;;;;;0.82;81.92;100237.23;1743964;81;22366;-55
2020/12/14 06:32:40;;;;;;;7.65;4.62;;;;;;;0.79;81.64;100240.78;1669711;83;21744;-55
2020/12/14 06:35:19;;;;;;;8.68;4.97;;;;;;;0.90;81.77;100245.36;1679692;83;21434;-56
2020/12/14 06:37:54;;;;;;;5.70;4.10;;;;;;;0.88;81.46;100245.45;1692232;83;21569;-56
2020/12/14 06:40:22;;;;;;;7.17;4.35;;;;;;;0.80;81.46;100248.88;1702644;83;21190;-57
2020/12/14 06:42:51;;;;;;;8.55;4.40;;;;;;;0.78;81.38;100247.67;1683594;83;21685;-57
2020/12/14 06:45:21;;;;;;;6.92;4.30;;;;;;;0.72;81.31;100252.31;1689438;83;22327;-54
2020/12/14 06:47:52;;;;;;;9.05;5.00;;;;;;;0.75;81.48;100259.42;1663652;84;21169;-54
2020/12/14 06:50:29;;;;;;;9.85;5.67;;;;;;;0.78;81.41;100263.56;1692856;83;21665;-55
2020/12/14 06:52:59;;;;;;;9.05;5.42;;;;;;;0.76;81.34;100257.69;1690142;83;22420;-56
2020/12/14 06:55:45;;;;;;;9.63;5.70;;;;;;;0.85;81.48;100262.78;1696222;83;21174;-55
2020/12/14 07:01:40;;;;;;;13.30;7.25;;;;;;;0.96;80.76;100261.30;1809964;77;22667;-56
2020/12/14 07:04:21;;;;;;;12.07;7.47;;;;;;;0.95;80.66;100264.78;1752943;80;21143;-55
2020/12/14 07:06:50;;;;;;;11.12;6.83;;;;;;;1.02;80.49;100259.67;1742573;81;21502;-54
2020/12/14 07:09:29;;;;;;;26.27;13.62;;;;;;;1.04;80.22;100266.02;1759091;80;21167;-56
2020/12/14 07:12:14;;;;;;;22.67;11.45;;;;;;;1.04;80.19;100264.27;1731108;83;21166;-56
2020/12/14 07:14:54;;;;;;;15.08;7.35;;;;;;;1.12;80.11;100270.73;1742586;80;21607;-56
2020/12/14 07:17:28;;;;;;;30.25;14.50;;;;;;;1.18;79.97;100270.41;1764427;80;21218;-56
2020/12/14 07:19:59;;;;;;;17.82;9.23;;;;;;;1.20;79.87;100277.61;1727318;83;21775;-54
2020/12/14 07:22:37;;;;;;;14.80;8.35;;;;;;;1.26;79.71;100281.95;1690702;84;21637;-55
2020/12/14 07:25:05;;;;;;;17.95;9.93;;;;;;;1.28;79.43;100276.26;1721739;83;21317;-55
2020/12/14 07:27:34;;;;;;;10.23;5.53;;;;;;;1.25;79.26;100276.44;1732677;82;21173;-54
2020/12/14 07:30:08;;;;;;;9.18;5.35;;;;;;;1.26;79.14;100274.70;1741207;82;21158;-57
2020/12/14 07:32:37;;;;;;;9.68;5.92;;;;;;;1.13;79.05;100274.54;1725516;83;21681;-56
2020/12/14 07:35:07;;;;;;;10.30;5.97;;;;;;;1.11;79.27;100275.06;1721987;83;21657;-55
2020/12/14 07:37:36;;;;;;;10.70;6.50;;;;;;;1.12;79.28;100278.03;1725909;83;21539;-56
2020/12/14 07:40:09;;;;;;;11.63;6.28;;;;;;;1.16;79.30;100282.08;1736653;82;21234;-56
2020/12/14 07:42:46;;;;;;;11.10;6.35;;;;;;;1.17;79.10;100289.34;1739118;82;21553;-57
2020/12/14 07:45:19;;;;;;;8.98;5.08;;;;;;;1.13;79.07;100284.84;1684175;85;21587;-54
2020/12/14 07:47:50;;;;;;;9.85;5.80;;;;;;;1.10;79.18;100285.45;1721801;83;21559;-55
2020/12/14 07:50:22;;;;;;;10.00;6.05;;;;;;;0.99;79.30;100282.16;1717442;83;21627;-54
2020/12/14 07:55:38;;;;;;;9.88;6.50;;;;;;;0.94;79.77;100282.42;1796383;77;28449;-56
2020/12/14 07:58:07;;;;;;;9.38;5.33;;;;;;;1.07;79.83;100285.99;1777421;78;21554;-56
2020/12/14 08:00:35;;;;;;;13.03;6.67;;;;;;;1.15;79.46;100286.03;1777597;78;21562;-56
2020/12/14 08:03:05;;;;;;;10.78;6.40;;;;;;;1.07;79.42;100282.59;1740106;80;21630;-55
2020/12/14 08:05:34;;;;;;;13.85;6.90;;;;;;;1.03;79.64;100287.06;1754216;81;21642;-55
2020/12/14 08:08:04;;;;;;;10.40;6.40;;;;;;;1.13;79.88;100285.30;1760919;81;22261;-55
2020/12/14 08:10:35;;;;;;;8.38;5.20;;;;;;;1.20;79.67;100286.16;1761779;81;21139;-55
2020/12/14 08:13:11;;;;;;;10.40;5.25;;;;;;;1.26;79.46;100279.39;1754659;81;21262;-56
2020/12/14 08:15:46;;;;;;;10.68;5.80;;;;;;;1.27;79.26;100283.61;1730900;80;21100;-54
2020/12/14 08:18:15;;;;;;;9.03;5.50;;;;;;;1.18;79.25;100281.98;1754634;80;21585;-55
2020/12/14 08:20:44;;;;;;;8.25;5.37;;;;;;;1.14;79.30;100278.77;1717106;81;21198;-54
2020/12/14 08:23:21;;;;;;;10.58;5.85;;;;;;;1.09;79.66;100275.61;1749801;80;21580;-55
2020/12/14 08:25:53;;;;;;;8.95;5.72;;;;;;;1.13;79.63;100275.83;1756821;80;21135;-57
2020/12/14 08:28:30;;;;;;;11.38;5.67;;;;;;;1.16;79.62;100279.97;1748959;80;21606;-57
2020/12/14 08:31:06;;;;;;;11.43;6.15;;;;;;;1.24;79.55;100279.94;1742785;81;21155;-56
2020/12/14 08:33:54;;;;;;;8.60;5.67;;;;;;;1.22;79.44;100272.73;1697483;84;21170;-56
2020/12/14 08:36:24;;;;;;;10.78;6.15;;;;;;;1.15;79.46;100274.45;1697588;83;21643;-55
2020/12/14 08:38:55;;;;;;;7.58;5.47;;;;;;;1.16;79.69;100270.95;1709031;83;21170;-57
2020/12/14 08:41:26;;;;;;;10.55;6.17;;;;;;;1.13;79.58;100273.25;1697352;83;21683;-57
2020/12/14 08:43:55;;;;;;;9.75;5.62;;;;;;;1.05;79.65;100275.39;1712227;83;21578;-57
2020/12/14 08:46:29;;;;;;;10.90;5.75;;;;;;;1.11;79.79;100269.09;1675367;84;21170;-57
2020/12/14 08:49:02;;;;;;;7.28;4.70;;;;;;;1.06;79.86;100264.21;1692740;84;21199;-55
2020/12/14 08:51:33;;;;;;;9.63;5.90;;;;;;;1.06;79.86;100264.21;1704694;83;21337;-55
2020/12/14 08:54:17;;;;;;;10.28;5.92;;;;;;;1.13;79.99;100262.95;1704110;83;22314;-55
2020/12/14 08:56:46;;;;;;;;;;;;;;;1.15;79.71;100261.13;1745478;82;21260;-56
2020/12/14 08:59:20;;;;;;;10.68;6.37;;;;;;;1.06;79.65;100259.89;1737636;82;20531;-56
2020/12/14 09:02:08;;;;;;;9.53;5.27;;;;;;;1.11;79.71;100254.93;1739722;80;21194;-56
2020/12/14 09:04:39;;;;;;;14.98;5.35;;;;;;;1.14;79.51;100250.92;1686377;83;21493;-55
2020/12/14 09:07:08;;;;;;;9.88;5.15;;;;;;;1.07;79.37;100252.54;1725408;83;21622;-55
2020/12/14 09:09:38;;;;;;;7.12;4.58;;;;;;;1.05;79.51;100248.38;1726465;83;22310;-56
2020/12/14 09:12:12;;;;;;;9.78;5.80;;;;;;;1.16;79.56;100247.79;1743584;82;21575;-55
2020/12/14 09:14:40;;;;;;;9.80;6.17;;;;;;;1.15;79.29;100245.67;1755065;81;21222;-54
2020/12/14 09:17:18;;;;;;;7.65;4.95;;;;;;;1.16;79.50;100246.05;1742431;80;21633;-54
2020/12/14 09:19:51;;;;;;;9.03;5.40;;;;;;;1.18;79.21;100244.23;1745040;82;21602;-56
2020/12/14 09:22:25;;;;;;;8.43;5.03;;;;;;;1.22;79.26;100248.74;1726910;82;21143;-55
2020/12/14 09:24:54;;;;;;;8.60;5.25;;;;;;;1.30;79.12;100240.13;1733051;82;21551;-55
2020/12/14 09:27:23;;;;;;;8.85;4.87;;;;;;;1.20;79.00;100233.84;1736115;82;21695;-54
2020/12/14 09:29:55;;;;;;;8.68;5.03;;;;;;;1.22;79.16;100234.58;1741727;80;21585;-54
2020/12/14 09:32:24;;;;;;;9.13;5.15;;;;;;;1.20;79.01;100235.97;1739591;80;21646;-56
2020/12/14 09:34:57;;;;;;;9.10;5.40;;;;;;;1.25;79.15;100240.86;1755590;80;21561;-58
2020/12/14 09:37:30;;;;;;;10.63;5.95;;;;;;;1.29;79.29;100238.01;1732273;80;21187;-55
2020/12/14 09:40:01;;;;;;;10.00;6.15;;;;;;;1.27;79.07;100237.28;1728281;80;21641;-56
2020/12/14 09:42:29;;;;;;;10.25;6.15;;;;;;;1.20;79.13;100240.28;1739283;80;21743;-55
2020/12/14 09:44:59;;;;;;;8.68;5.72;;;;;;;1.20;79.41;100240.28;1738535;82;21751;-54
2020/12/14 09:47:28;;;;;;;8.75;5.12;;;;;;;1.21;79.44;100231.19;1744997;81;21171;-56
2020/12/14 09:49:58;;;;;;;9.03;5.30;;;;;;;1.26;79.34;100227.08;1725928;82;21610;-55
2020/12/14 09:52:28;;;;;;;6.15;4.22;;;;;;;1.32;79.32;100229.30;1739483;80;21603;-56
2020/12/14 09:54:56;;;;;;;9.48;5.15;;;;;;;1.28;78.91;100231.20;1744492;80;22396;-55
2020/12/14 09:57:25;;;;;;;7.75;4.80;;;;;;;1.26;79.14;100232.22;1792239;80;21716;-55
2020/12/14 09:59:53;;;;;;;7.45;4.85;;;;;;;1.27;79.22;100232.12;1789532;80;21150;-55
2020/12/14 10:02:22;;;;;;;8.18;5.20;;;;;;;1.33;79.10;100225.35;1742747;81;21177;-55
2020/12/14 10:04:51;;;;;;;18.37;12.05;;;;;;;1.35;79.11;100214.95;1739386;80;22328;-55
2020/12/14 10:07:21;;;;;;;10.23;6.87;;;;;;;1.37;79.00;100218.73;1742374;81;21142;-55
2020/12/14 10:09:50;;;;;;;18.90;13.53;;;;;;;1.40;78.93;100218.11;1742706;81;21582;-56
2020/12/14 10:12:20;;;;;;;12.37;9.00;;;;;;;1.42;78.95;100211.12;1738604;81;21285;-57
2020/12/14 10:14:49;;;;;;;9.65;6.53;;;;;;;1.48;78.77;100210.77;1739159;81;21551;-56
2020/12/14 10:17:17;;;;;;;12.13;10.13;;;;;;;1.42;78.70;100212.41;1748556;80;21582;-55
2020/12/14 10:19:47;;;;;;;8.43;5.62;;;;;;;1.37;78.88;100201.56;1746122;80;21638;-54
2020/12/14 10:22:16;;;;;;;10.63;6.58;;;;;;;1.32;78.96;100210.00;1736821;81;21102;-55
2020/12/14 10:24:45;;;;;;;10.18;6.58;;;;;;;1.37;79.14;100207.14;1743615;81;21145;-56
2020/12/14 10:27:15;;;;;;;9.75;7.08;;;;;;;1.32;78.88;100212.57;1734155;81;21610;-55
2020/12/14 10:29:43;;;;;;;9.45;5.90;;;;;;;1.36;79.24;100203.73;1747072;80;21587;-54
2020/12/14 10:32:12;;;;;;;9.08;5.70;;;;;;;1.46;79.04;100211.33;1746908;81;21582;-58
2020/12/14 10:34:41;;;;;;;8.33;5.47;;;;;;;1.46;79.11;100210.03;1739187;81;21179;-54
2020/12/14 10:37:09;;;;;;;8.70;5.35;;;;;;;1.51;78.99;100209.32;1694729;84;21574;-55
2020/12/14 10:39:38;;;;;;;11.63;5.72;;;;;;;1.61;78.95;100205.74;1693315;84;21602;-55
2020/12/14 10:42:06;;;;;;;9.08;5.28;;;;;;;1.59;78.53;100206.30;1678932;84;22326;-55
2020/12/14 10:44:36;;;;;;;7.20;4.45;;;;;;;1.50;78.59;100206.84;1685692;84;21587;-56
2020/12/14 10:47:08;;;;;;;7.17;4.35;;;;;;;1.51;78.61;100206.75;1700650;84;21216;-56
2020/12/14 10:49:37;;;;;;;7.90;4.80;;;;;;;1.55;78.51;100210.81;1686879;84;21515;-55
2020/12/14 10:52:05;;;;;;;6.92;4.45;;;;;;;1.64;78.53;100215.88;1698427;83;21620;-57
2020/12/14 10:54:34;;;;;;;6.22;3.58;;;;;;;1.70;78.31;100218.57;1698014;82;21600;-56
2020/12/14 10:57:03;;;;;;;6.62;4.47;;;;;;;1.76;77.98;100216.92;1692024;84;21645;-54
2020/12/14 10:59:32;;;;;;;6.92;4.40;;;;;;;1.69;77.92;100222.89;1697201;84;21608;-56
2020/12/14 11:02:00;;;;;;;8.35;5.22;;;;;;;1.62;77.91;100226.75;1690664;84;22239;-56
2020/12/14 11:04:29;;;;;;;7.83;4.87;;;;;;;1.64;78.16;100226.65;1709785;83;21633;-57
2020/12/14 11:06:58;;;;;;;7.67;5.12;;;;;;;1.72;78.13;100229.14;1733901;82;21613;-56
2020/12/14 11:09:28;;;;;;;6.35;4.60;;;;;;;1.74;78.06;100233.77;1707834;83;21215;-54
2020/12/14 11:11:57;;;;;;;6.25;4.40;;;;;;;1.82;77.99;100235.89;1722137;83;21586;-56
2020/12/14 11:14:26;;;;;;;6.35;4.45;;;;;;;1.78;77.79;100234.41;1734710;83;21546;-55
2020/12/14 11:16:56;;;;;;;6.30;4.40;;;;;;;1.71;77.93;100235.22;1733655;83;21566;-56
2020/12/14 11:19:24;;;;;;;6.60;4.20;;;;;;;1.72;77.95;100242.02;1695625;83;22144;-56
2020/12/14 11:21:57;;;;;;;8.00;5.03;;;;;;;1.73;78.10;100244.97;1695316;83;21636;-57
2020/12/14 11:24:26;;;;;;;9.23;5.30;;;;;;;1.76;78.03;100249.95;1726127;83;21188;-55
2020/12/14 11:26:56;;;;;;;7.25;4.60;;;;;;;1.74;78.02;100242.78;1771007;80;21554;-55
2020/12/14 11:29:27;;;;;;;9.53;5.95;;;;;;;1.70;77.97;100247.73;1775187;80;21591;-56
2020/12/14 11:31:56;;;;;;;9.20;5.10;;;;;;;1.69;78.21;100247.37;1789263;80;21641;-54
2020/12/14 11:34:24;;;;;;;9.20;6.67;;;;;;;1.75;78.26;100249.59;1776119;80;21590;-55
2020/12/14 11:36:53;;;;;;;10.13;6.58;;;;;;;1.78;78.14;100246.00;1756083;81;21650;-55
2020/12/14 11:39:23;;;;;;;10.20;7.17;;;;;;;1.76;78.04;100253.82;1755326;81;21609;-57
2020/12/14 11:41:51;;;;;;;8.73;5.85;;;;;;;1.67;78.07;100251.75;1726420;82;21125;-58
2020/12/14 11:44:20;;;;;;;8.20;5.47;;;;;;;1.65;78.35;100247.63;1735879;81;21788;-56
2020/12/14 11:46:50;;;;;;;7.50;5.10;;;;;;;1.63;78.44;100249.00;1751055;82;21183;-56
2020/12/14 11:49:19;;;;;;;7.40;4.42;;;;;;;1.70;78.64;100251.59;1752186;82;21627;-59
2020/12/14 11:51:48;;;;;;;6.92;5.00;;;;;;;1.78;78.42;100249.40;1742469;82;21764;-56
2020/12/14 11:54:17;;;;;;;11.08;5.50;;;;;;;1.77;78.31;100245.62;1739818;80;21614;-58
2020/12/14 11:56:47;;;;;;;9.70;5.25;;;;;;;1.72;78.44;100243.77;1741040;81;21193;-57
2020/12/14 11:59:15;;;;;;;10.85;7.40;;;;;;;1.67;78.50;100240.16;1738465;80;21211;-58
2020/12/14 12:01:44;;;;;;;20.10;14.55;;;;;;;1.71;78.54;100238.25;1738519;81;21555;-57
2020/12/14 12:04:14;;;;;;;31.37;27.98;;;;;;;1.76;78.58;100239.66;1749908;81;21851;-58
2020/12/14 12:06:42;;;;;;;21.40;19.10;;;;;;;1.81;78.54;100235.06;1762333;80;21634;-58
2020/12/14 12:09:12;;;;;;;15.53;12.70;;;;;;;1.80;78.37;100233.41;1737189;81;21142;-58
2020/12/14 12:11:46;;;;;;;13.10;8.40;;;;;;;1.82;78.36;100236.72;1748452;80;21622;-57
2020/12/14 12:14:15;;;;;;;8.80;5.65;;;;;;;1.89;78.20;100236.73;1731794;81;22233;-57
2020/12/14 12:16:44;;;;;;;7.85;4.90;;;;;;;1.91;77.92;100230.19;1736875;80;21717;-59
2020/12/14 12:19:14;;;;;;;6.40;4.03;;;;;;;1.84;77.77;100233.59;1743161;81;21271;-59
2020/12/14 12:21:48;;;;;;;8.18;4.62;;;;;;;1.83;77.95;100230.64;1750611;81;21593;-57
2020/12/14 12:24:21;;;;;;;9.73;5.55;;;;;;;1.88;77.92;100232.50;1752291;81;21199;-55
2020/12/14 12:26:49;;;;;;;11.35;5.67;;;;;;;1.84;77.91;100231.02;1753451;81;21566;-55
2020/12/14 12:29:19;;;;;;;12.50;6.87;;;;;;;1.89;77.98;100230.29;1711113;82;21206;-55
2020/12/14 12:31:51;;;;;;;12.60;7.55;;;;;;;1.89;77.75;100224.30;1686822;85;22518;-54
2020/12/14 12:34:21;;;;;;;11.83;7.00;;;;;;;1.82;77.75;100225.59;1715152;83;21558;-56
2020/12/14 12:36:55;;;;;;;11.43;6.12;;;;;;;1.74;77.93;100223.89;1706561;83;21622;-55
2020/12/14 12:39:23;;;;;;;10.65;6.28;;;;;;;1.66;78.12;100224.80;1703900;83;21163;-55
2020/12/14 12:41:52;;;;;;;11.78;6.97;;;;;;;1.60;78.25;100216.97;1711869;83;21565;-55
2020/12/14 12:44:21;;;;;;;11.18;7.00;;;;;;;1.49;78.39;100216.74;1720636;83;21183;-55
2020/12/14 12:46:50;;;;;;;12.03;6.78;;;;;;;1.44;78.82;100213.63;1716284;83;21206;-56
2020/12/14 12:49:19;;;;;;;13.65;6.75;;;;;;;1.45;78.90;100217.39;1695701;84;21661;-58
2020/12/14 12:51:49;;;;;;;8.48;4.87;;;;;;;1.41;78.84;100212.50;1720076;83;21562;-56
2020/12/14 12:54:17;;;;;;;9.20;5.72;;;;;;;1.36;78.90;100223.05;1712944;83;21320;-54
2020/12/14 12:56:46;;;;;;;9.05;5.12;;;;;;;1.33;78.96;100224.52;1725451;83;21739;-56
2020/12/14 12:59:14;;;;;;;9.13;5.45;;;;;;;1.40;79.17;100225.83;1715628;83;21624;-55
2020/12/14 13:01:43;;;;;;;9.25;4.55;;;;;;;1.48;79.14;100221.53;1709431;83;22448;-56
2020/12/14 13:04:12;;;;;;;9.23;4.87;;;;;;;1.46;78.99;100222.91;1721049;83;22257;-59
2020/12/14 13:06:42;;;;;;;10.20;5.08;;;;;;;1.48;79.02;100226.22;1701944;83;21676;-55
2020/12/14 13:09:10;;;;;;;7.37;5.05;;;;;;;1.56;78.58;100226.63;1696001;83;21618;-56
2020/12/14 13:11:41;;;;;;;10.38;6.80;;;;;;;1.56;78.58;100226.63;1695141;83;21586;-55
2020/12/14 13:14:12;;;;;;;11.30;5.85;;;;;;;1.55;78.82;100223.70;1716314;83;21178;-55
2020/12/14 13:16:42;;;;;;;8.68;5.60;;;;;;;1.58;78.72;100226.54;1673220;85;21621;-56
2020/12/14 13:19:11;;;;;;;5.55;3.90;;;;;;;1.57;78.73;100224.88;1684906;84;21640;-55
2020/12/14 13:21:40;;;;;;;7.25;3.72;;;;;;;1.51;78.61;100221.38;1695795;84;21673;-56
2020/12/14 13:24:09;;;;;;;5.53;3.67;;;;;;;1.50;78.59;100218.43;1696353;84;21649;-55
2020/12/14 13:26:37;;;;;;;7.28;3.80;;;;;;;1.43;78.37;100232.55;1704389;83;21764;-55
2020/12/14 13:29:06;;;;;;;5.72;3.50;;;;;;;1.43;78.37;100232.55;1706902;84;21333;-55
2020/12/14 13:31:34;;;;;;;5.35;3.60;;;;;;;1.38;78.61;100231.53;1696617;84;21565;-55
2020/12/14 13:34:03;;;;;;;6.30;3.85;;;;;;;1.40;78.67;100229.70;1682923;84;21586;-55
2020/12/14 13:36:31;;;;;;;6.65;4.20;;;;;;;1.43;78.57;100221.81;1707083;82;21625;-55
2020/12/14 13:39:00;;;;;;;7.20;4.50;;;;;;;1.48;78.62;100217.20;1690179;84;21558;-55
2020/12/14 13:41:29;;;;;;;8.95;5.45;;;;;;;1.54;78.49;100219.44;1703864;84;21606;-55
2020/12/14 13:43:59;;;;;;;7.90;4.90;;;;;;;1.63;78.39;100219.84;1679365;85;21597;-55
2020/12/14 13:46:28;;;;;;;13.13;6.58;;;;;;;1.71;78.11;100213.78;1691321;84;21603;-56
2020/12/14 13:48:57;;;;;;;10.95;5.87;;;;;;;1.71;77.81;100216.36;1679136;85;21658;-55
2020/12/14 13:51:27;;;;;;;10.58;6.15;;;;;;;1.64;77.69;100226.19;1695196;85;21595;-55
2020/12/14 13:53:55;;;;;;;10.80;6.87;;;;;;;1.63;77.98;100219.84;1696625;83;21186;-56
2020/12/14 13:56:24;;;;;;;16.93;10.43;;;;;;;1.60;77.93;100219.08;1691132;85;21650;-56
2020/12/14 13:58:52;;;;;;;15.58;9.55;;;;;;;1.46;77.75;100223.37;1723718;83;21188;-56
2020/12/14 14:01:21;;;;;;;12.43;8.60;;;;;;;1.32;78.16;100232.70;1724314;83;21175;-55
2020/12/14 14:03:49;;;;;;;19.15;12.05;;;;;;;1.27;78.50;100242.42;1700336;83;21649;-56
2020/12/14 14:06:18;;;;;;;12.47;8.20;;;;;;;1.29;78.73;100244.45;1696918;84;21610;-56
2020/12/14 14:08:47;;;;;;;8.63;5.80;;;;;;;1.40;78.92;100246.43;1696757;84;21199;-56
2020/12/14 14:11:16;;;;;;;7.72;4.95;;;;;;;1.52;78.91;100242.34;1700541;83;21158;-56
2020/12/14 14:13:45;;;;;;;9.23;5.45;;;;;;;1.61;78.52;100242.66;1726517;83;21732;-56
2020/12/14 14:16:13;;;;;;;8.60;5.30;;;;;;;1.65;78.39;100249.73;1725362;83;21756;-57
2020/12/14 14:18:42;;;;;;;8.75;5.47;;;;;;;1.83;78.11;100240.95;1725026;83;21831;-56
2020/12/14 14:21:12;;;;;;;8.85;5.70;;;;;;;1.83;78.11;100240.95;1715747;83;21138;-55
2020/12/14 14:23:40;;;;;;;8.40;5.75;;;;;;;1.95;77.83;100247.61;1662200;84;21602;-56
2020/12/14 14:26:10;;;;;;;10.08;6.42;;;;;;;2.03;77.57;100247.52;1706327;83;21590;-56
2020/12/14 14:28:39;;;;;;;10.78;6.62;;;;;;;2.12;77.29;100247.45;1696808;84;21618;-56
2020/12/14 14:31:07;;;;;;;11.05;6.60;;;;;;;2.14;76.87;100250.76;1696588;84;21622;-55
2020/12/14 14:33:36;;;;;;;13.45;7.58;;;;;;;2.13;76.71;100258.13;1700102;83;21198;-56
2020/12/14 14:36:05;;;;;;;14.07;8.35;;;;;;;2.07;76.55;100258.48;1726006;83;21610;-55
2020/12/14 14:38:34;;;;;;;17.32;9.25;;;;;;;2.02;76.57;100251.48;1707645;83;21590;-55
2020/12/14 14:41:05;;;;;;;15.23;8.70;;;;;;;2.02;76.66;100253.59;1711549;83;21155;-55
2020/12/14 14:43:33;;;;;;;13.55;8.23;;;;;;;2.05;76.63;100256.01;1698738;83;21602;-55
2020/12/14 14:46:03;;;;;;;15.63;9.10;;;;;;;2.08;76.46;100251.95;1725684;83;21622;-55
2020/12/14 14:48:32;;;;;;;15.65;8.80;;;;;;;2.11;76.42;100248.34;1724693;83;21163;-55
2020/12/14 14:51:00;;;;;;;15.83;9.15;;;;;;;2.16;76.23;100256.18;1725706;83;21610;-55
2020/12/14 14:53:33;;;;;;;17.65;9.55;;;;;;;2.17;76.05;100250.56;1714578;83;21608;-55
2020/12/14 14:55:59;;;;;;;24.95;13.45;;;;;;;2.18;75.97;100247.55;1717926;83;21593;-55
2020/12/14 14:58:29;;;;;;;21.40;13.25;;;;;;;2.19;75.96;100251.32;1723312;83;21247;-55
2020/12/14 15:00:58;;;;;;;19.45;11.00;;;;;;;2.20;75.89;100245.70;1725637;83;21610;-55
2020/12/14 15:03:26;;;;;;;17.57;9.73;;;;;;;2.10;75.74;100251.84;1713312;83;21284;-55
2020/12/14 15:05:55;;;;;;;14.15;8.58;;;;;;;2.04;75.98;100250.92;1700627;83;21661;-55
2020/12/14 15:08:28;;;;;;;15.43;9.23;;;;;;;1.97;75.88;100245.30;1701987;83;21705;-55
2020/12/14 15:10:56;;;;;;;17.70;11.55;;;;;;;1.91;76.06;100235.80;1699932;83;21187;-56
